Time;durP1;ratioP1;P1;durP2;ratioP2;P2;SDS_P1;SDS_P2;PMS_P1;PMS_P2;Temp;Humidity;BMP_temperature;BMP_pressure;BME280_temperature;BME280_humidity;BME280_pressure;Samples;Min_cycle;Max_cycle;Signal;HPM_P1;HPM_P2
2022/04/09 00:00:43;;;;;;;6.60;1.35;;;;;;;;;;5103903;27;20058;-75
2022/04/09 00:03:09;;;;;;;2.03;1.00;;;;;;;;;;5086438;28;20035;-70
2022/04/09 00:05:35;;;;;;;1.35;0.68;;;;;;;;;;5096011;28;20077;-74
2022/04/09 00:08:02;;;;;;;9.80;1.65;;;;;;;;;;5079101;28;20047;-74
2022/04/09 00:10:28;;;;;;;3.72;1.20;;;;;;;;;;5079026;28;20456;-74
2022/04/09 00:12:54;;;;;;;6.95;2.55;;;;;;;;;;5079437;28;20045;-75
2022/04/09 00:15:20;;;;;;;12.38;2.00;;;;;;;;;;5079203;28;20126;-76
2022/04/09 00:17:47;;;;;;;6.63;1.08;;;;;;;;;;5096125;28;20487;-76
2022/04/09 00:20:14;;;;;;;8.38;1.38;;;;;;;;;;5096012;28;20040;-75
2022/04/09 00:22:40;;;;;;;6.97;1.30;;;;;;;;;;5078719;28;20104;-74
2022/04/09 00:25:07;;;;;;;3.83;0.98;;;;;;;;;;5094826;28;20045;-74
2022/04/09 00:27:33;;;;;;;2.10;1.10;;;;;;;;;;5078142;28;20416;-73
2022/04/09 00:29:59;;;;;;;2.15;1.10;;;;;;;;;;5078360;28;20044;-74
2022/04/09 00:32:25;;;;;;;4.80;1.38;;;;;;;;;;5094859;28;20035;-75
2022/04/09 00:34:51;;;;;;;1.73;1.10;;;;;;;;;;5078056;28;20046;-75
2022/04/09 00:37:17;;;;;;;2.78;0.80;;;;;;;;;;5095224;28;20047;-75
2022/04/09 00:39:43;;;;;;;1.30;0.95;;;;;;;;;;5078650;28;20144;-74
2022/04/09 00:42:18;;;;;;;1.55;1.08;;;;;;;;;;5078484;28;20039;-75
2022/04/09 00:44:45;;;;;;;2.80;1.52;;;;;;;;;;5078596;28;20109;-75
2022/04/09 00:47:11;;;;;;;4.28;0.93;;;;;;;;;;5078562;28;20081;-76
2022/04/09 00:49:38;;;;;;;3.90;1.17;;;;;;;;;;5078421;28;20047;-76
2022/04/09 00:52:04;;;;;;;4.72;0.88;;;;;;;;;;5095205;28;20057;-76
2022/04/09 00:54:34;;;;;;;4.82;1.30;;;;;;;;;;5078128;28;20036;-75
2022/04/09 00:57:03;;;;;;;7.38;1.58;;;;;;;;;;5078433;28;20084;-75
2022/04/09 00:59:30;;;;;;;1.38;0.95;;;;;;;;;;5078401;28;20047;-76
2022/04/09 01:01:56;;;;;;;6.45;1.02;;;;;;;;;;5095297;28;20181;-75
2022/04/09 01:04:22;;;;;;;2.47;0.63;;;;;;;;;;5095108;28;20042;-75
2022/04/09 01:06:49;;;;;;;3.33;1.05;;;;;;;;;;5095015;28;20489;-74
2022/04/09 01:09:15;;;;;;;1.85;1.50;;;;;;;;;;5078155;28;20031;-71
2022/04/09 01:11:41;;;;;;;3.72;1.00;;;;;;;;;;5078170;28;20099;-70
2022/04/09 01:14:07;;;;;;;1.85;1.05;;;;;;;;;;5094275;28;20410;-70
2022/04/09 01:16:35;;;;;;;18.17;2.15;;;;;;;;;;5077448;28;20076;-71
2022/04/09 01:19:01;;;;;;;1.92;1.25;;;;;;;;;;5093851;28;20047;-75
2022/04/09 01:21:28;;;;;;;3.17;1.08;;;;;;;;;;5077016;28;20098;-73
2022/04/09 01:23:54;;;;;;;2.75;0.77;;;;;;;;;;5094143;28;20077;-74
2022/04/09 01:26:21;;;;;;;5.13;0.90;;;;;;;;;;5094427;28;20047;-73
2022/04/09 01:28:47;;;;;;;1.70;0.85;;;;;;;;;;5077982;28;20122;-74
2022/04/09 01:31:14;;;;;;;3.72;1.17;;;;;;;;;;5094396;28;20032;-74
2022/04/09 01:33:40;;;;;;;3.85;0.82;;;;;;;;;;5077683;28;20498;-73
2022/04/09 01:36:06;;;;;;;1.05;0.50;;;;;;;;;;5077675;28;20028;-72
2022/04/09 01:38:34;;;;;;;0.70;0.50;;;;;;;;;;5094484;28;20507;-73
2022/04/09 01:41:00;;;;;;;3.58;0.77;;;;;;;;;;5077590;28;20046;-74
2022/04/09 01:43:26;;;;;;;1.33;0.60;;;;;;;;;;5077242;28;20131;-74
2022/04/09 01:45:52;;;;;;;2.47;1.05;;;;;;;;;;5094016;28;20495;-75
2022/04/09 01:48:18;;;;;;;0.77;0.50;;;;;;;;;;5077751;28;20069;-73
2022/04/09 01:50:44;;;;;;;5.78;0.75;;;;;;;;;;5077702;28;20039;-75
2022/04/09 01:53:10;;;;;;;8.07;1.95;;;;;;;;;;5077418;28;20044;-72
2022/04/09 01:55:37;;;;;;;7.30;0.90;;;;;;;;;;5077359;28;20066;-72
2022/04/09 01:58:03;;;;;;;3.72;0.65;;;;;;;;;;5077120;28;20530;-72
2022/04/09 02:00:29;;;;;;;6.53;0.68;;;;;;;;;;5077382;28;20122;-73
2022/04/09 02:02:55;;;;;;;2.20;0.90;;;;;;;;;;5072775;28;20421;-74
2022/04/09 02:05:21;;;;;;;3.78;0.68;;;;;;;;;;5073425;28;20049;-75
2022/04/09 02:07:48;;;;;;;3.65;0.70;;;;;;;;;;5090058;28;20142;-74
2022/04/09 02:10:15;;;;;;;6.68;1.38;;;;;;;;;;5091208;28;20043;-75
2022/04/09 02:12:41;;;;;;;5.05;1.10;;;;;;;;;;5073543;28;20047;-76
2022/04/09 02:15:11;;;;;;;2.05;0.60;;;;;;;;;;5073233;28;20408;-75
2022/04/09 02:17:38;;;;;;;4.80;0.70;;;;;;;;;;5072897;28;20039;-75
2022/04/09 02:20:05;;;;;;;4.03;0.70;;;;;;;;;;5073625;28;20047;-74
2022/04/09 02:22:38;;;;;;;3.90;1.20;;;;;;;;;;5090384;28;20134;-75
2022/04/09 02:25:04;;;;;;;5.07;0.90;;;;;;;;;;5072470;28;20050;-74
2022/04/09 02:27:30;;;;;;;2.83;0.90;;;;;;;;;;5073357;28;20044;-75
2022/04/09 02:29:56;;;;;;;1.48;0.63;;;;;;;;;;5072794;28;20047;-75
2022/04/09 02:32:22;;;;;;;4.70;1.10;;;;;;;;;;5089988;28;20095;-75
2022/04/09 02:34:52;;;;;;;4.88;1.67;;;;;;;;;;5073076;28;20044;-75
2022/04/09 02:37:18;;;;;;;4.95;0.75;;;;;;;;;;5090137;28;20100;-73
2022/04/09 02:39:44;;;;;;;1.50;0.60;;;;;;;;;;5073075;28;20044;-74
2022/04/09 02:42:10;;;;;;;4.38;0.60;;;;;;;;;;5072575;28;20048;-75
2022/04/09 02:44:36;;;;;;;3.13;1.20;;;;;;;;;;5089890;28;20056;-74
2022/04/09 02:47:02;;;;;;;7.78;1.27;;;;;;;;;;5072997;28;20442;-74
2022/04/09 02:49:28;;;;;;;3.80;0.88;;;;;;;;;;5074964;28;20128;-71
2022/04/09 02:51:54;;;;;;;1.75;0.90;;;;;;;;;;5093408;28;20059;-74
2022/04/09 02:54:20;;;;;;;2.47;0.95;;;;;;;;;;5093549;28;20039;-76
2022/04/09 02:56:46;;;;;;;4.82;0.90;;;;;;;;;;5076531;28;20043;-75
2022/04/09 02:59:13;;;;;;;4.38;0.70;;;;;;;;;;5076386;28;20491;-75
2022/04/09 03:01:40;;;;;;;3.08;1.10;;;;;;;;;;5093906;28;20054;-75
2022/04/09 03:04:07;;;;;;;8.32;1.13;;;;;;;;;;5076445;28;20411;-75
2022/04/09 03:06:33;;;;;;;3.22;1.05;;;;;;;;;;5076534;28;20502;-72
2022/04/09 03:08:59;;;;;;;3.15;0.65;;;;;;;;;;5076676;28;20071;-71
2022/04/09 03:11:25;;;;;;;3.60;0.88;;;;;;;;;;5076546;28;20032;-73
2022/04/09 03:13:51;;;;;;;1.40;0.77;;;;;;;;;;5093372;28;20050;-75
2022/04/09 03:16:17;;;;;;;1.02;0.80;;;;;;;;;;5076484;28;20043;-75
2022/04/09 03:18:43;;;;;;;5.57;0.90;;;;;;;;;;5076334;28;20036;-75
2022/04/09 03:21:09;;;;;;;2.97;0.80;;;;;;;;;;5093066;28;20556;-75
2022/04/09 03:23:35;;;;;;;5.70;1.00;;;;;;;;;;5093216;28;20071;-75
2022/04/09 03:26:01;;;;;;;4.07;0.98;;;;;;;;;;5076352;28;20126;-75
2022/04/09 03:28:27;;;;;;;4.85;1.10;;;;;;;;;;5076568;28;20032;-75
2022/04/09 03:30:53;;;;;;;2.78;0.90;;;;;;;;;;5075876;28;20076;-75
2022/04/09 03:33:19;;;;;;;1.83;1.00;;;;;;;;;;5076125;28;20035;-76
2022/04/09 03:35:47;;;;;;;5.35;0.77;;;;;;;;;;5076749;28;20493;-75
2022/04/09 03:38:13;;;;;;;2.20;0.65;;;;;;;;;;5096653;28;20372;-75
2022/04/09 03:40:40;;;;;;;4.90;0.88;;;;;;;;;;5079741;28;20051;-76
2022/04/09 03:43:06;;;;;;;1.58;0.90;;;;;;;;;;5079255;28;20492;-76
2022/04/09 03:45:31;;;;;;;2.85;1.70;;;;;;;;;;5079184;28;20044;-75
2022/04/09 03:47:57;;;;;;;4.43;1.02;;;;;;;;;;5096527;28;20036;-77
2022/04/09 03:50:23;;;;;;;2.20;0.75;;;;;;;;;;5079499;28;20044;-75
2022/04/09 03:52:49;;;;;;;7.43;0.93;;;;;;;;;;5079898;28;20539;-75
2022/04/09 03:55:16;;;;;;;0.82;0.80;;;;;;;;;;5079725;28;20414;-75
2022/04/09 03:57:42;;;;;;;2.22;0.50;;;;;;;;;;5096233;28;20040;-75
2022/04/09 04:00:08;;;;;;;2.83;0.90;;;;;;;;;;5096635;28;20071;-75
2022/04/09 04:02:34;;;;;;;4.82;0.88;;;;;;;;;;5079214;28;20431;-76
2022/04/09 04:05:03;;;;;;;6.25;1.05;;;;;;;;;;5095922;28;20055;-74
2022/04/09 04:07:29;;;;;;;3.58;1.13;;;;;;;;;;5079466;28;20076;-76
2022/04/09 04:09:55;;;;;;;3.53;0.95;;;;;;;;;;5095917;28;20506;-76
2022/04/09 04:12:23;;;;;;;3.53;0.98;;;;;;;;;;5079224;28;20415;-74
2022/04/09 04:14:49;;;;;;;3.92;0.98;;;;;;;;;;5095836;28;20065;-76
2022/04/09 04:17:14;;;;;;;4.85;1.08;;;;;;;;;;5079075;28;20036;-77
2022/04/09 04:19:41;;;;;;;5.75;0.80;;;;;;;;;;5079011;28;20062;-73
2022/04/09 04:22:10;;;;;;;4.72;1.48;;;;;;;;;;5078880;28;20040;-76
2022/04/09 04:24:39;;;;;;;4.80;1.00;;;;;;;;;;5095619;28;20092;-74
2022/04/09 04:27:06;;;;;;;1.17;1.08;;;;;;;;;;5095655;28;20479;-75
2022/04/09 04:29:32;;;;;;;5.82;1.02;;;;;;;;;;5095723;28;20070;-75
2022/04/09 04:31:58;;;;;;;9.45;0.90;;;;;;;;;;5078826;28;20032;-74
2022/04/09 04:34:24;;;;;;;1.48;1.00;;;;;;;;;;5078894;28;20138;-74
2022/04/09 04:36:50;;;;;;;4.68;1.15;;;;;;;;;;5079145;28;20054;-75
2022/04/09 04:39:16;;;;;;;8.05;0.85;;;;;;;;;;5078999;28;20142;-75
2022/04/09 04:41:42;;;;;;;3.03;0.80;;;;;;;;;;5094974;28;20078;-75
2022/04/09 04:44:10;;;;;;;2.15;0.93;;;;;;;;;;5062410;28;20056;-74
2022/04/09 04:46:36;;;;;;;4.65;0.93;;;;;;;;;;5071621;28;20040;-74
2022/04/09 04:49:03;;;;;;;0.98;0.73;;;;;;;;;;5054054;28;20033;-75
2022/04/09 04:51:29;;;;;;;7.10;1.08;;;;;;;;;;5054954;28;20036;-74
2022/04/09 04:53:55;;;;;;;0.65;0.65;;;;;;;;;;5054961;28;20040;-75
2022/04/09 04:56:23;;;;;;;4.68;0.90;;;;;;;;;;5071831;28;20044;-75
2022/04/09 04:58:49;;;;;;;2.03;1.00;;;;;;;;;;5054926;28;20036;-74
2022/04/09 05:01:15;;;;;;;3.70;0.77;;;;;;;;;;5071389;28;20404;-75
2022/04/09 05:03:41;;;;;;;1.95;0.98;;;;;;;;;;5071300;28;20044;-76
2022/04/09 05:06:07;;;;;;;7.28;0.82;;;;;;;;;;5054888;28;20069;-76
2022/04/09 05:08:34;;;;;;;0.43;0.43;;;;;;;;;;5071422;28;20059;-75
2022/04/09 05:11:00;;;;;;;1.88;0.60;;;;;;;;;;5054816;28;20503;-76
2022/04/09 05:13:25;;;;;;;1.27;0.55;;;;;;;;;;5071169;28;20033;-76
2022/04/09 05:15:51;;;;;;;3.75;0.73;;;;;;;;;;5054740;28;20076;-75
2022/04/09 05:18:17;;;;;;;3.95;0.80;;;;;;;;;;5054515;28;20040;-75
2022/04/09 05:20:43;;;;;;;3.33;0.63;;;;;;;;;;5054215;28;20077;-76
2022/04/09 05:23:09;;;;;;;5.55;1.33;;;;;;;;;;5071057;28;20051;-75
2022/04/09 05:25:35;;;;;;;0.75;0.70;;;;;;;;;;5070950;28;20072;-75
2022/04/09 05:28:05;;;;;;;1.65;0.60;;;;;;;;;;5054580;28;20388;-75
2022/04/09 05:30:34;;;;;;;3.92;1.13;;;;;;;;;;5054207;28;20126;-74
2022/04/09 05:33:01;;;;;;;8.80;0.88;;;;;;;;;;5054072;28;20041;-75
2022/04/09 05:35:27;;;;;;;3.25;1.17;;;;;;;;;;5054107;28;20044;-73
2022/04/09 05:37:53;;;;;;;3.50;1.00;;;;;;;;;;5070909;28;20550;-75
2022/04/09 05:40:20;;;;;;;3.63;0.80;;;;;;;;;;5070464;28;20089;-76
2022/04/09 05:42:46;;;;;;;9.07;1.08;;;;;;;;;;5055544;28;20040;-75
2022/04/09 05:45:12;;;;;;;2.92;1.13;;;;;;;;;;5094056;28;20052;-76
2022/04/09 05:47:42;;;;;;;1.38;0.80;;;;;;;;;;5077273;28;20096;-77
2022/04/09 05:50:09;;;;;;;4.20;1.05;;;;;;;;;;5094008;28;20539;-74
2022/04/09 05:52:35;;;;;;;4.18;1.08;;;;;;;;;;5094108;28;20448;-76
2022/04/09 05:55:03;;;;;;;2.58;0.85;;;;;;;;;;5077196;28;20141;-75
2022/04/09 05:57:29;;;;;;;3.42;0.73;;;;;;;;;;5099558;27;20047;-75
2022/04/09 05:59:55;;;;;;;3.15;0.90;;;;;;;;;;5103610;27;20486;-76
2022/04/09 06:02:21;;;;;;;0.43;0.43;;;;;;;;;;5086453;27;20515;-75
2022/04/09 06:04:47;;;;;;;3.35;1.02;;;;;;;;;;5102345;27;20035;-71
2022/04/09 06:07:13;;;;;;;4.47;0.70;;;;;;;;;;5085216;27;20394;-74
2022/04/09 06:09:41;;;;;;;3.78;1.00;;;;;;;;;;5086124;27;20368;-75
2022/04/09 06:12:07;;;;;;;2.38;0.85;;;;;;;;;;5101555;28;20075;-76
2022/04/09 06:14:33;;;;;;;2.92;0.70;;;;;;;;;;5102204;27;20043;-74
2022/04/09 06:16:59;;;;;;;5.13;1.10;;;;;;;;;;5102769;27;20490;-74
2022/04/09 06:19:27;;;;;;;3.20;0.98;;;;;;;;;;5085047;27;20043;-74
2022/04/09 06:21:53;;;;;;;4.22;0.70;;;;;;;;;;5094916;28;20503;-71
2022/04/09 06:24:19;;;;;;;2.75;0.80;;;;;;;;;;5098313;27;20035;-68
2022/04/09 06:26:45;;;;;;;1.40;0.50;;;;;;;;;;5099353;27;20118;-70
2022/04/09 06:29:11;;;;;;;1.98;0.40;;;;;;;;;;5097768;28;20127;-71
2022/04/09 06:31:37;;;;;;;1.10;0.73;;;;;;;;;;5098738;28;20064;-71
2022/04/09 06:34:03;;;;;;;1.15;0.60;;;;;;;;;;5082516;28;20118;-72
2022/04/09 06:36:29;;;;;;;3.08;0.85;;;;;;;;;;5097133;28;20433;-73
2022/04/09 06:38:55;;;;;;;0.60;0.60;;;;;;;;;;5099125;28;20405;-73
2022/04/09 06:41:21;;;;;;;2.17;0.65;;;;;;;;;;5098712;28;20075;-73
2022/04/09 06:43:47;;;;;;;1.70;0.80;;;;;;;;;;5097261;28;20081;-74
2022/04/09 06:46:13;;;;;;;3.65;0.70;;;;;;;;;;5099826;28;20130;-73
2022/04/09 06:48:39;;;;;;;3.38;0.90;;;;;;;;;;5081633;28;20035;-73
2022/04/09 06:51:06;;;;;;;1.20;0.65;;;;;;;;;;5098157;28;20043;-73
2022/04/09 06:53:32;;;;;;;5.25;0.90;;;;;;;;;;5095290;28;20046;-74
2022/04/09 06:55:58;;;;;;;7.63;1.27;;;;;;;;;;5099107;28;20120;-74
2022/04/09 06:58:24;;;;;;;11.30;1.20;;;;;;;;;;5099605;28;20059;-73
2022/04/09 07:00:50;;;;;;;5.38;1.05;;;;;;;;;;5098139;28;20418;-73
2022/04/09 07:03:16;;;;;;;8.30;1.17;;;;;;;;;;5100159;28;20051;-72
2022/04/09 07:05:42;;;;;;;2.65;1.13;;;;;;;;;;5086630;28;20031;-71
2022/04/09 07:08:08;;;;;;;4.85;1.00;;;;;;;;;;5102223;28;20046;-74
2022/04/09 07:10:36;;;;;;;3.85;0.80;;;;;;;;;;5103502;28;20042;-69
2022/04/09 07:13:02;;;;;;;6.65;1.15;;;;;;;;;;5106950;27;20032;-70
2022/04/09 07:15:28;;;;;;;4.10;0.95;;;;;;;;;;5105203;27;20038;-74
2022/04/09 07:17:55;;;;;;;3.95;0.93;;;;;;;;;;5111725;27;20394;-68
2022/04/09 07:20:22;;;;;;;3.38;1.02;;;;;;;;;;5118411;27;20039;-68
2022/04/09 07:22:48;;;;;;;8.65;1.02;;;;;;;;;;5118008;27;20039;-72
2022/04/09 07:25:16;;;;;;;6.07;1.17;;;;;;;;;;5117890;27;20038;-69
2022/04/09 07:27:43;;;;;;;3.95;1.02;;;;;;;;;;5118213;27;20084;-72
2022/04/09 07:30:11;;;;;;;6.82;1.00;;;;;;;;;;5117926;27;20084;-68
2022/04/09 07:32:37;;;;;;;4.75;0.93;;;;;;;;;;5118296;27;20070;-70
2022/04/09 07:35:04;;;;;;;2.90;0.73;;;;;;;;;;5118152;27;20047;-72
2022/04/09 07:37:30;;;;;;;6.38;1.10;;;;;;;;;;5118203;27;20710;-68
2022/04/09 07:39:57;;;;;;;4.03;1.00;;;;;;;;;;5117881;27;20100;-70
2022/04/09 07:42:23;;;;;;;4.43;0.90;;;;;;;;;;5117639;27;20379;-72
2022/04/09 07:44:49;;;;;;;5.72;1.08;;;;;;;;;;5117681;27;20483;-67
2022/04/09 07:47:15;;;;;;;3.97;0.77;;;;;;;;;;5117910;27;20104;-69
2022/04/09 07:49:46;;;;;;;5.93;1.23;;;;;;;;;;5117887;27;20078;-69
2022/04/09 07:52:12;;;;;;;4.55;1.23;;;;;;;;;;5118056;27;20123;-70
2022/04/09 07:54:38;;;;;;;8.95;1.63;;;;;;;;;;5117797;27;20125;-69
2022/04/09 07:57:05;;;;;;;6.85;1.00;;;;;;;;;;5117383;27;20129;-73
2022/04/09 07:59:31;;;;;;;3.90;0.98;;;;;;;;;;5117559;27;20068;-73
2022/04/09 08:01:57;;;;;;;2.70;0.73;;;;;;;;;;5117384;27;20483;-69
2022/04/09 08:04:23;;;;;;;0.68;0.47;;;;;;;;;;5117507;27;20403;-68
2022/04/09 08:06:49;;;;;;;2.30;0.50;;;;;;;;;;5117114;27;20046;-67
2022/04/09 08:09:15;;;;;;;2.95;0.65;;;;;;;;;;5116708;27;20049;-67
2022/04/09 08:11:41;;;;;;;4.63;1.30;;;;;;;;;;5117314;27;20035;-68
2022/04/09 08:14:07;;;;;;;3.60;0.65;;;;;;;;;;5117319;27;20475;-69
2022/04/09 08:16:33;;;;;;;3.13;0.85;;;;;;;;;;5117341;27;20042;-66
2022/04/09 08:19:01;;;;;;;3.88;0.90;;;;;;;;;;5117123;27;20065;-69
2022/04/09 08:21:27;;;;;;;1.25;0.70;;;;;;;;;;5116816;27;20035;-72
2022/04/09 08:23:52;;;;;;;6.93;0.90;;;;;;;;;;5115351;27;20126;-68
2022/04/09 08:26:18;;;;;;;5.50;1.08;;;;;;;;;;5116263;27;20130;-68
2022/04/09 08:28:44;;;;;;;3.92;0.68;;;;;;;;;;5116313;27;20035;-69
2022/04/09 08:31:10;;;;;;;2.83;0.60;;;;;;;;;;5116294;27;20488;-69
2022/04/09 08:33:36;;;;;;;5.93;0.70;;;;;;;;;;5114590;27;20037;-68
2022/04/09 08:36:02;;;;;;;1.52;0.80;;;;;;;;;;5078913;28;20127;-69
2022/04/09 08:38:29;;;;;;;2.50;1.10;;;;;;;;;;5078968;28;20043;-69
2022/04/09 08:40:55;;;;;;;4.63;0.93;;;;;;;;;;5078659;28;20043;-67
2022/04/09 08:43:21;;;;;;;3.22;0.80;;;;;;;;;;5076497;28;20521;-70
2022/04/09 08:45:47;;;;;;;6.07;0.95;;;;;;;;;;5074966;28;20511;-67
2022/04/09 08:48:14;;;;;;;5.25;0.80;;;;;;;;;;5075086;28;20043;-71
2022/04/09 08:50:42;;;;;;;4.03;0.80;;;;;;;;;;5092007;28;20070;-67
2022/04/09 08:53:08;;;;;;;2.72;0.77;;;;;;;;;;5074882;28;20039;-68
2022/04/09 08:55:37;;;;;;;6.05;0.82;;;;;;;;;;5092455;28;20055;-69
2022/04/09 08:58:04;;;;;;;6.75;0.70;;;;;;;;;;5093103;28;20043;-67
2022/04/09 09:00:30;;;;;;;1.83;0.85;;;;;;;;;;5093805;28;20076;-69
2022/04/09 09:02:58;;;;;;;1.85;0.60;;;;;;;;;;5093182;28;20491;-70
2022/04/09 09:05:34;;;;;;;4.53;1.10;;;;;;;;;;5093092;28;20043;-69
2022/04/09 09:08:00;;;;;;;6.13;0.85;;;;;;;;;;5092352;28;20127;-69
2022/04/09 09:10:27;;;;;;;2.55;0.70;;;;;;;;;;5092407;28;20035;-72
2022/04/09 09:13:04;;;;;;;5.55;0.93;;;;;;;;;;5075693;28;20051;-71
2022/04/09 09:15:30;;;;;;;10.10;2.00;;;;;;;;;;5092731;28;20047;-67
2022/04/09 09:17:59;;;;;;;4.60;0.93;;;;;;;;;;5075556;28;20063;-71
2022/04/09 09:20:26;;;;;;;3.00;0.77;;;;;;;;;;5075731;28;20123;-67
2022/04/09 09:22:52;;;;;;;4.65;1.02;;;;;;;;;;5092533;28;20387;-71
2022/04/09 09:25:18;;;;;;;1.92;0.57;;;;;;;;;;5092834;28;20044;-70
2022/04/09 09:27:44;;;;;;;6.22;0.85;;;;;;;;;;5075751;28;20503;-68
2022/04/09 09:30:12;;;;;;;5.13;1.48;;;;;;;;;;5091380;28;20040;-68
2022/04/09 09:32:41;;;;;;;2.00;0.57;;;;;;;;;;5074255;28;20082;-67
2022/04/09 09:35:12;;;;;;;3.83;0.70;;;;;;;;;;5090573;28;20123;-70
2022/04/09 09:37:38;;;;;;;3.97;0.63;;;;;;;;;;5090768;28;20047;-69
2022/04/09 09:40:04;;;;;;;3.50;0.40;;;;;;;;;;5090935;28;20042;-68
2022/04/09 09:42:33;;;;;;;3.33;0.35;;;;;;;;;;5074174;28;20052;-68
2022/04/09 09:44:59;;;;;;;1.02;0.60;;;;;;;;;;5090636;28;20059;-69
2022/04/09 09:47:25;;;;;;;4.60;0.70;;;;;;;;;;5090759;28;20070;-68
2022/04/09 09:49:56;;;;;;;2.30;0.50;;;;;;;;;;5073603;28;20043;-67
2022/04/09 09:52:26;;;;;;;2.40;0.30;;;;;;;;;;5091024;28;20043;-68
2022/04/09 09:54:59;;;;;;;1.70;0.40;;;;;;;;;;5090836;28;20047;-68
2022/04/09 09:57:26;;;;;;;2.78;0.40;;;;;;;;;;5073811;28;20564;-70
2022/04/09 09:59:54;;;;;;;3.30;0.90;;;;;;;;;;5073160;28;20050;-71
2022/04/09 10:02:21;;;;;;;5.15;0.65;;;;;;;;;;5090366;28;20055;-71
2022/04/09 10:04:47;;;;;;;6.70;1.15;;;;;;;;;;5090836;28;20506;-69
2022/04/09 10:07:16;;;;;;;3.78;0.68;;;;;;;;;;5090488;28;20437;-68
2022/04/09 10:09:42;;;;;;;2.92;1.00;;;;;;;;;;5073620;28;20067;-69
2022/04/09 10:12:13;;;;;;;5.18;0.73;;;;;;;;;;5090215;28;20051;-68
2022/04/09 10:14:40;;;;;;;2.17;0.35;;;;;;;;;;5090318;28;20047;-73
2022/04/09 10:17:07;;;;;;;2.22;0.40;;;;;;;;;;5073805;28;20086;-72
2022/04/09 10:19:35;;;;;;;2.17;0.40;;;;;;;;;;5090698;28;20043;-71
2022/04/09 10:22:01;;;;;;;4.13;0.52;;;;;;;;;;5073306;28;20145;-70
2022/04/09 10:24:28;;;;;;;3.22;1.10;;;;;;;;;;5073151;28;20586;-69
2022/04/09 10:26:55;;;;;;;2.10;0.70;;;;;;;;;;5090417;28;20040;-67
2022/04/09 10:29:22;;;;;;;2.50;0.95;;;;;;;;;;5090009;28;20839;-68
2022/04/09 10:31:51;;;;;;;1.48;0.45;;;;;;;;;;5090059;28;20112;-68
2022/04/09 10:34:17;;;;;;;2.10;0.43;;;;;;;;;;5073335;28;20079;-69
2022/04/09 10:36:43;;;;;;;1.83;0.75;;;;;;;;;;5073050;28;20105;-70
2022/04/09 10:39:25;;;;;;;2.38;0.50;;;;;;;;;;5073376;28;20554;-69
2022/04/09 10:41:55;;;;;;;2.75;1.05;;;;;;;;;;5090361;28;20459;-69
2022/04/09 10:44:52;;;;;;;1.23;0.30;;;;;;;;;;5090107;28;20051;-71
2022/04/09 10:47:18;;;;;;;3.50;1.05;;;;;;;;;;5093054;28;20102;-70
2022/04/09 10:50:02;;;;;;;1.67;0.63;;;;;;;;;;5077216;28;20589;-70
2022/04/09 10:52:30;;;;;;;2.78;0.43;;;;;;;;;;5094219;28;20043;-68
2022/04/09 10:55:06;;;;;;;1.52;0.30;;;;;;;;;;5094197;28;20044;-72
2022/04/09 10:57:45;;;;;;;2.42;0.40;;;;;;;;;;5077249;28;20035;-68
2022/04/09 11:00:24;;;;;;;5.72;0.57;;;;;;;;;;5094736;28;20053;-69
2022/04/09 11:03:04;;;;;;;2.15;0.65;;;;;;;;;;5095451;28;20052;-68
2022/04/09 11:05:30;;;;;;;1.23;0.50;;;;;;;;;;5078659;28;20048;-69
2022/04/09 11:08:09;;;;;;;1.10;0.43;;;;;;;;;;5095090;28;20044;-70
2022/04/09 11:10:35;;;;;;;2.90;0.60;;;;;;;;;;5094129;28;20043;-69
2022/04/09 11:13:01;;;;;;;2.67;0.40;;;;;;;;;;5076844;28;20126;-71
2022/04/09 11:15:28;;;;;;;1.52;0.55;;;;;;;;;;5094184;28;20122;-68
2022/04/09 11:18:00;;;;;;;3.67;0.52;;;;;;;;;;5076914;28;20048;-69
2022/04/09 11:20:30;;;;;;;3.03;0.43;;;;;;;;;;5094050;28;20043;-70
2022/04/09 11:22:56;;;;;;;3.10;0.90;;;;;;;;;;5093632;28;20433;-70
2022/04/09 11:25:22;;;;;;;1.17;0.45;;;;;;;;;;5092824;28;20403;-69
2022/04/09 11:27:48;;;;;;;3.80;0.95;;;;;;;;;;5093548;28;20122;-71
2022/04/09 11:30:15;;;;;;;1.17;0.57;;;;;;;;;;5093677;28;20100;-68
2022/04/09 11:32:41;;;;;;;1.75;0.52;;;;;;;;;;5093626;28;20043;-67
2022/04/09 11:35:11;;;;;;;4.28;0.60;;;;;;;;;;5093546;28;20053;-69
2022/04/09 11:37:44;;;;;;;1.63;0.40;;;;;;;;;;5076242;28;20047;-70
2022/04/09 11:40:11;;;;;;;2.65;0.55;;;;;;;;;;5076556;28;20055;-69
2022/04/09 11:42:48;;;;;;;7.38;1.13;;;;;;;;;;5076364;28;20117;-70
2022/04/09 11:45:21;;;;;;;2.38;0.68;;;;;;;;;;5076077;28;20036;-68
2022/04/09 11:47:47;;;;;;;2.80;0.60;;;;;;;;;;5092610;28;20063;-69
2022/04/09 11:50:14;;;;;;;4.05;0.82;;;;;;;;;;5093071;28;20039;-72
2022/04/09 11:52:40;;;;;;;4.03;0.73;;;;;;;;;;5076060;28;20039;-70
2022/04/09 11:55:09;;;;;;;1.50;0.60;;;;;;;;;;5076206;28;20414;-69
2022/04/09 11:57:39;;;;;;;2.65;0.70;;;;;;;;;;5092665;28;20047;-68
2022/04/09 12:00:10;;;;;;;2.25;0.70;;;;;;;;;;5092686;28;20047;-70
2022/04/09 12:02:36;;;;;;;3.97;0.90;;;;;;;;;;5092951;28;20491;-72
2022/04/09 12:05:02;;;;;;;4.03;0.52;;;;;;;;;;5092889;28;20770;-69
2022/04/09 12:07:30;;;;;;;2.95;0.40;;;;;;;;;;5092769;28;20356;-70
2022/04/09 12:09:56;;;;;;;4.03;0.60;;;;;;;;;;5092858;28;20039;-69
2022/04/09 12:12:23;;;;;;;2.08;0.40;;;;;;;;;;5092792;28;20475;-67
2022/04/09 12:14:56;;;;;;;1.95;0.50;;;;;;;;;;5092670;28;20089;-69
2022/04/09 12:17:23;;;;;;;1.95;0.30;;;;;;;;;;5092542;28;20040;-70
2022/04/09 12:19:51;;;;;;;3.13;0.85;;;;;;;;;;5075538;28;20040;-71
2022/04/09 12:22:22;;;;;;;3.67;0.70;;;;;;;;;;5094383;28;20210;-69
2022/04/09 12:24:56;;;;;;;0.50;0.40;;;;;;;;;;5096665;28;20100;-68
2022/04/09 12:27:43;;;;;;;3.42;0.65;;;;;;;;;;5095873;28;20035;-70
2022/04/09 12:30:09;;;;;;;2.30;0.40;;;;;;;;;;5095418;28;20120;-69
2022/04/09 12:32:35;;;;;;;3.35;1.08;;;;;;;;;;5078981;28;20042;-66
2022/04/09 12:35:05;;;;;;;2.70;0.45;;;;;;;;;;5079273;28;20417;-69
2022/04/09 12:37:31;;;;;;;0.98;0.50;;;;;;;;;;5095674;28;20410;-68
2022/04/09 12:40:13;;;;;;;5.57;0.63;;;;;;;;;;5095956;28;20042;-71
2022/04/09 12:42:39;;;;;;;;;;;;;;;;;;5079155;28;20046;-70
2022/04/09 12:45:15;;;;;;;2.92;0.82;;;;;;;;;;5078652;28;19920;-67
2022/04/09 12:47:42;;;;;;;5.18;0.68;;;;;;;;;;5079030;28;20145;-68
2022/04/09 12:50:18;;;;;;;2.28;0.47;;;;;;;;;;5078895;28;20051;-70
2022/04/09 12:52:44;;;;;;;1.95;0.57;;;;;;;;;;5095858;28;20075;-68
2022/04/09 12:55:11;;;;;;;3.70;0.70;;;;;;;;;;5095628;28;20071;-70
2022/04/09 12:57:36;;;;;;;4.88;0.60;;;;;;;;;;5095302;28;20130;-68
2022/04/09 13:00:03;;;;;;;3.30;0.60;;;;;;;;;;5078299;28;20082;-67
2022/04/09 13:02:29;;;;;;;0.38;0.38;;;;;;;;;;5095093;28;20055;-68
2022/04/09 13:04:55;;;;;;;3.28;0.50;;;;;;;;;;5095604;28;20052;-74
2022/04/09 13:07:21;;;;;;;2.33;0.60;;;;;;;;;;5078486;28;20039;-68
2022/04/09 13:09:47;;;;;;;1.10;0.73;;;;;;;;;;5077824;28;20036;-67
2022/04/09 13:12:13;;;;;;;2.60;0.60;;;;;;;;;;5095416;28;20421;-69
2022/04/09 13:14:39;;;;;;;2.15;0.40;;;;;;;;;;5078551;28;20058;-67
2022/04/09 13:17:05;;;;;;;1.52;0.60;;;;;;;;;;5095368;28;20055;-69
2022/04/09 13:19:34;;;;;;;0.68;0.60;;;;;;;;;;5095092;28;20493;-68
2022/04/09 13:22:00;;;;;;;2.00;0.70;;;;;;;;;;5095447;28;20217;-69
2022/04/09 13:24:26;;;;;;;5.25;0.68;;;;;;;;;;5094735;28;20046;-69
2022/04/09 13:26:52;;;;;;;2.13;0.63;;;;;;;;;;5095513;28;20137;-71
2022/04/09 13:29:18;;;;;;;2.67;0.60;;;;;;;;;;5095398;28;20069;-69
2022/04/09 13:31:45;;;;;;;2.28;0.43;;;;;;;;;;5078199;28;20033;-69
2022/04/09 13:34:14;;;;;;;1.17;0.50;;;;;;;;;;5095270;28;20494;-68
2022/04/09 13:36:40;;;;;;;2.45;0.77;;;;;;;;;;5094815;28;20103;-68
2022/04/09 13:39:06;;;;;;;2.50;0.70;;;;;;;;;;5095030;28;20039;-68
2022/04/09 13:41:32;;;;;;;1.08;0.50;;;;;;;;;;5094670;28;20081;-69
2022/04/09 13:43:59;;;;;;;2.55;0.50;;;;;;;;;;5077829;28;20050;-67
2022/04/09 13:46:25;;;;;;;2.63;0.50;;;;;;;;;;5094776;28;20495;-69
2022/04/09 13:48:51;;;;;;;5.70;1.25;;;;;;;;;;5094440;28;20122;-72
2022/04/09 13:51:16;;;;;;;2.95;0.65;;;;;;;;;;5077663;28;20043;-69
2022/04/09 13:53:42;;;;;;;4.13;1.13;;;;;;;;;;5077389;28;20433;-69
2022/04/09 13:56:08;;;;;;;2.90;0.65;;;;;;;;;;5094196;28;20039;-69
2022/04/09 13:58:34;;;;;;;3.30;0.93;;;;;;;;;;5091413;28;20547;-68
2022/04/09 14:01:00;;;;;;;3.05;0.70;;;;;;;;;;5090917;28;20051;-70
2022/04/09 14:03:26;;;;;;;5.05;0.73;;;;;;;;;;5090396;28;20047;-70
2022/04/09 14:05:52;;;;;;;2.80;0.63;;;;;;;;;;5090793;28;20543;-66
2022/04/09 14:08:18;;;;;;;1.60;0.90;;;;;;;;;;5090715;28;20056;-68
2022/04/09 14:10:44;;;;;;;0.75;0.73;;;;;;;;;;5073746;28;20120;-73
2022/04/09 14:13:10;;;;;;;2.25;0.98;;;;;;;;;;5073913;28;20538;-67
2022/04/09 14:15:36;;;;;;;1.05;0.52;;;;;;;;;;5090187;28;20040;-71
2022/04/09 14:18:02;;;;;;;0.35;0.35;;;;;;;;;;5083146;28;20040;-67
2022/04/09 14:20:29;;;;;;;2.22;0.70;;;;;;;;;;5090101;28;20047;-66
2022/04/09 14:22:55;;;;;;;2.67;0.90;;;;;;;;;;5073432;28;20055;-75
2022/04/09 14:25:21;;;;;;;2.60;0.60;;;;;;;;;;5090006;28;20409;-67
2022/04/09 14:27:47;;;;;;;2.65;0.73;;;;;;;;;;5089939;28;20048;-70
2022/04/09 14:30:13;;;;;;;1.50;0.45;;;;;;;;;;5090481;28;20039;-67
2022/04/09 14:32:40;;;;;;;1.55;1.45;;;;;;;;;;5090291;28;20039;-66
2022/04/09 14:35:06;;;;;;;1.05;0.65;;;;;;;;;;5090186;28;20081;-68
2022/04/09 14:37:32;;;;;;;1.15;0.57;;;;;;;;;;5090265;28;20047;-69
2022/04/09 14:39:58;;;;;;;2.53;0.60;;;;;;;;;;5089901;28;20620;-70
2022/04/09 14:42:24;;;;;;;1.80;0.90;;;;;;;;;;5090280;28;20054;-70